createdAt,value
2023-04-21T00:00:33.418Z,0.00
2023-04-21T00:01:33.605Z,0.00
2023-04-21T00:02:35.864Z,0.00
2023-04-21T00:03:34.343Z,0.00
2023-04-21T00:04:34.350Z,0.00
2023-04-21T00:05:34.575Z,0.00
2023-04-21T00:06:41.702Z,0.00
2023-04-21T00:07:34.952Z,0.00
2023-04-21T00:08:35.157Z,0.00
2023-04-21T00:09:35.331Z,0.00
2023-04-21T00:10:35.518Z,0.00
2023-04-21T00:11:35.690Z,0.00
2023-04-21T00:12:35.894Z,0.00
2023-04-21T00:13:36.109Z,0.00
2023-04-21T00:14:36.266Z,0.00
2023-04-21T00:15:36.435Z,0.00
2023-04-21T00:16:36.732Z,0.00
2023-04-21T00:17:36.883Z,0.00
2023-04-21T00:18:37.144Z,0.00
2023-04-21T00:19:37.351Z,0.00
2023-04-21T00:20:37.513Z,0.00
2023-04-21T00:21:37.677Z,0.00
2023-04-21T00:22:37.958Z,0.00
2023-04-21T00:23:38.118Z,0.00
2023-04-21T00:24:38.430Z,0.00
2023-04-21T00:25:38.604Z,0.00
2023-04-21T00:26:38.804Z,0.00
2023-04-21T00:27:38.995Z,0.00
2023-04-21T00:28:39.181Z,0.00
2023-04-21T00:29:39.370Z,0.00
2023-04-21T00:30:39.558Z,0.00
2023-04-21T00:31:39.786Z,0.00
2023-04-21T00:32:40.067Z,0.00
2023-04-21T00:33:40.216Z,0.00
2023-04-21T00:34:40.418Z,0.00
2023-04-21T00:35:40.610Z,0.00
2023-04-21T00:36:40.806Z,0.00
2023-04-21T00:37:40.997Z,0.00
2023-04-21T00:38:41.218Z,0.00
2023-04-21T00:39:41.416Z,0.00
2023-04-21T00:40:41.809Z,0.00
2023-04-21T00:41:41.895Z,0.00
2023-04-21T00:42:42.106Z,0.00
2023-04-21T00:43:42.338Z,0.00
2023-04-21T00:44:42.542Z,0.00
2023-04-21T00:45:42.727Z,0.00
2023-04-21T00:46:42.961Z,0.00
2023-04-21T00:47:43.163Z,0.00
2023-04-21T00:48:43.300Z,0.00
2023-04-21T00:49:43.488Z,0.00
2023-04-21T00:50:43.696Z,0.00
2023-04-21T00:51:43.848Z,0.00
2023-04-21T00:52:44.139Z,0.00
2023-04-21T00:53:44.317Z,0.00
2023-04-21T00:54:44.551Z,0.00
2023-04-21T00:55:44.733Z,0.00
2023-04-21T00:56:45.117Z,0.00
2023-04-21T00:57:45.305Z,0.00
2023-04-21T00:58:45.489Z,0.00
2023-04-21T00:59:45.688Z,0.00
2023-04-21T01:00:45.893Z,0.00
2023-04-21T01:01:46.123Z,0.00
2023-04-21T01:02:46.447Z,0.00
2023-04-21T01:03:46.811Z,0.00
2023-04-21T01:04:46.788Z,0.00
2023-04-21T01:05:46.956Z,0.00
2023-04-21T01:06:47.143Z,0.00
2023-04-21T01:07:47.469Z,0.00
2023-04-21T01:08:47.532Z,0.00
2023-04-21T01:09:47.726Z,0.00
2023-04-21T01:10:47.906Z,0.00
2023-04-21T01:11:48.078Z,0.00
2023-04-21T01:12:48.371Z,0.00
2023-04-21T01:13:48.554Z,0.00
2023-04-21T01:14:48.882Z,0.00
2023-04-21T01:15:49.065Z,0.00
2023-04-21T01:16:49.397Z,0.00
2023-04-21T01:17:49.618Z,0.00
2023-04-21T01:18:49.821Z,0.00
2023-04-21T01:19:50.054Z,0.00
2023-04-21T01:20:50.220Z,0.00
2023-04-21T01:21:50.409Z,0.00
2023-04-21T01:22:50.648Z,0.00
2023-04-21T01:23:50.813Z,0.00
2023-04-21T01:24:51.059Z,0.00
2023-04-21T01:25:51.262Z,0.00
2023-04-21T01:26:51.446Z,0.00
2023-04-21T01:27:51.719Z,0.00
2023-04-21T01:28:52.024Z,0.00
2023-04-21T01:29:52.231Z,0.00
2023-04-21T01:30:52.399Z,0.00
2023-04-21T01:31:52.599Z,0.00
2023-04-21T01:32:52.892Z,0.00
2023-04-21T01:33:53.082Z,0.00
2023-04-21T01:34:53.285Z,0.00
2023-04-21T01:35:53.463Z,0.00
2023-04-21T01:36:53.675Z,0.00
2023-04-21T01:37:53.846Z,0.00
2023-04-21T01:38:54.163Z,0.00
2023-04-21T01:39:54.409Z,0.00
2023-04-21T01:40:54.563Z,0.00
2023-04-21T01:41:54.752Z,0.00
2023-04-21T01:42:54.952Z,0.00
2023-04-21T01:43:55.157Z,0.00
2023-04-21T01:44:55.430Z,0.00
2023-04-21T01:45:56.025Z,0.00
2023-04-21T01:46:55.888Z,0.00
2023-04-21T01:47:56.110Z,0.00
2023-04-21T01:48:56.349Z,0.00
2023-04-21T01:49:56.533Z,0.00
2023-04-21T01:50:56.822Z,0.00
2023-04-21T01:51:57.043Z,0.00
2023-04-21T01:52:57.261Z,0.00
2023-04-21T01:53:57.429Z,0.00
2023-04-21T01:54:57.748Z,0.00
2023-04-21T01:55:57.923Z,0.00
2023-04-21T01:56:58.286Z,0.00
2023-04-21T01:57:58.424Z,0.00
2023-04-21T01:58:58.608Z,0.00
2023-04-21T01:59:58.814Z,0.00
2023-04-21T02:00:59.066Z,0.00
2023-04-21T02:01:59.226Z,0.00
2023-04-21T02:02:59.614Z,0.00
2023-04-21T02:04:00.094Z,0.00
2023-04-21T02:05:00.064Z,0.00
2023-04-21T02:06:00.267Z,0.00
2023-04-21T02:07:00.471Z,0.00
2023-04-21T02:08:00.641Z,0.00
2023-04-21T02:09:00.925Z,0.00
2023-04-21T02:10:01.141Z,0.00
2023-04-21T02:11:01.370Z,0.00
2023-04-21T02:12:01.522Z,0.00
2023-04-21T02:13:01.860Z,0.00
2023-04-21T02:14:02.037Z,0.00
2023-04-21T02:15:02.353Z,0.00
2023-04-21T02:16:12.843Z,0.00
2023-04-21T02:17:03.835Z,0.00
2023-04-21T02:18:03.027Z,0.00
2023-04-21T02:19:03.225Z,0.00
2023-04-21T02:20:04.251Z,0.00
2023-04-21T02:21:03.652Z,0.00
2023-04-21T02:22:03.823Z,0.00
2023-04-21T02:23:04.130Z,0.00
2023-04-21T02:24:04.309Z,0.00
2023-04-21T02:25:04.587Z,0.00
2023-04-21T02:26:04.793Z,0.00
2023-04-21T02:27:04.987Z,0.00
2023-04-21T02:28:05.173Z,0.00
2023-04-21T02:29:05.352Z,0.00
2023-04-21T02:30:05.582Z,0.00
2023-04-21T02:31:05.825Z,0.00
2023-04-21T02:33:06.350Z,0.00
2023-04-21T02:34:06.496Z,0.00
2023-04-21T02:35:06.801Z,0.00
2023-04-21T02:36:06.955Z,0.00
2023-04-21T02:37:07.248Z,0.00
2023-04-21T02:38:07.543Z,0.00
2023-04-21T02:39:07.735Z,0.00
2023-04-21T02:40:07.959Z,0.00
2023-04-21T02:41:08.110Z,0.00
2023-04-21T02:42:08.430Z,0.00
2023-04-21T02:43:08.656Z,0.00
2023-04-21T02:44:08.849Z,0.00
2023-04-21T02:45:09.056Z,0.00
2023-04-21T02:46:09.304Z,0.00
2023-04-21T02:47:09.504Z,0.00
2023-04-21T02:48:09.832Z,0.00
2023-04-21T02:49:09.933Z,0.00
2023-04-21T02:50:10.149Z,0.00
2023-04-21T02:51:10.328Z,0.00
2023-04-21T02:52:10.528Z,0.00
2023-04-21T02:53:10.701Z,0.00
2023-04-21T02:54:10.991Z,0.00
2023-04-21T02:55:11.198Z,0.00
2023-04-21T02:56:11.402Z,0.00
2023-04-21T02:57:11.596Z,0.00
2023-04-21T02:58:11.883Z,0.00
2023-04-21T02:59:12.045Z,0.00
2023-04-21T03:00:12.412Z,0.00
2023-04-21T03:01:12.593Z,0.00
2023-04-21T03:02:12.978Z,0.00
2023-04-21T03:03:13.220Z,0.00
2023-04-21T03:04:13.438Z,0.00
2023-04-21T03:05:13.560Z,0.00
2023-04-21T03:06:13.771Z,0.00
2023-04-21T03:07:14.929Z,0.00
2023-04-21T03:08:14.217Z,0.00
2023-04-21T03:09:14.421Z,0.00
2023-04-21T03:10:14.653Z,0.00
2023-04-21T03:11:14.831Z,0.00
2023-04-21T03:12:15.052Z,0.00
2023-04-21T03:13:15.238Z,0.00
2023-04-21T03:14:15.540Z,0.00
2023-04-21T03:15:15.727Z,0.00
2023-04-21T03:16:15.967Z,0.00
2023-04-21T03:17:16.121Z,0.00
2023-04-21T03:18:16.412Z,0.00
2023-04-21T03:19:16.754Z,0.00
2023-04-21T03:20:16.882Z,0.00
2023-04-21T03:21:17.063Z,0.00
2023-04-21T03:22:17.387Z,0.00
2023-04-21T03:23:17.572Z,0.00
2023-04-21T03:24:17.804Z,4.00
2023-04-21T03:25:18.050Z,4.00
2023-04-21T03:26:18.255Z,0.00
2023-04-21T03:27:18.459Z,4.00
2023-04-21T03:28:18.702Z,4.00
2023-04-21T03:29:19.136Z,4.00
2023-04-21T03:30:19.332Z,4.00
2023-04-21T03:31:19.457Z,4.00
2023-04-21T03:32:19.763Z,4.00
2023-04-21T03:33:19.866Z,8.00
2023-04-21T03:34:20.119Z,8.00
2023-04-21T03:35:20.376Z,8.00
2023-04-21T03:36:20.630Z,12.00
2023-04-21T03:37:20.866Z,12.00
2023-04-21T03:38:21.096Z,16.00
2023-04-21T03:39:21.396Z,16.00
2023-04-21T03:40:21.634Z,20.00
2023-04-21T03:41:21.818Z,20.00
2023-04-21T03:42:22.026Z,28.00
2023-04-21T03:43:22.243Z,32.00
2023-04-21T03:44:22.538Z,32.00
2023-04-21T03:45:22.804Z,40.00
2023-04-21T03:46:23.028Z,44.00
2023-04-21T03:47:23.186Z,52.00
2023-04-21T03:48:23.502Z,60.00
2023-04-21T03:49:23.901Z,68.00
2023-04-21T03:50:24.029Z,76.00
2023-04-21T03:51:24.214Z,88.00
2023-04-21T03:52:24.521Z,96.00
2023-04-21T03:53:24.733Z,108.00
2023-04-21T03:54:24.916Z,120.00
2023-04-21T03:55:25.151Z,132.00
2023-04-21T03:56:25.333Z,148.00
2023-04-21T03:57:25.531Z,160.00
2023-04-21T03:58:25.719Z,176.00
2023-04-21T03:59:25.923Z,192.00
2023-04-21T04:00:26.140Z,212.00
2023-04-21T04:01:26.368Z,228.00
2023-04-21T04:02:26.641Z,244.00
2023-04-21T04:03:27.060Z,268.00
2023-04-21T04:04:27.213Z,288.00
2023-04-21T04:05:27.388Z,312.00
2023-04-21T04:06:27.544Z,332.00
2023-04-21T04:07:27.761Z,356.00
2023-04-21T04:08:27.938Z,380.00
2023-04-21T04:09:28.130Z,408.00
2023-04-21T04:10:28.444Z,432.00
2023-04-21T04:11:28.634Z,460.00
2023-04-21T04:12:28.951Z,488.00
2023-04-21T04:13:29.130Z,516.00
2023-04-21T04:14:29.521Z,552.00
2023-04-21T04:15:29.677Z,580.00
2023-04-21T04:16:30.021Z,612.00
2023-04-21T04:17:30.135Z,644.00
2023-04-21T04:18:30.414Z,680.00
2023-04-21T04:19:30.658Z,716.00
2023-04-21T04:20:30.869Z,752.00
2023-04-21T04:21:31.070Z,784.00
2023-04-21T04:22:31.254Z,820.00
2023-04-21T04:23:31.532Z,856.00
2023-04-21T04:24:31.864Z,896.00
2023-04-21T04:25:32.113Z,932.00
2023-04-21T04:26:32.310Z,968.00
2023-04-21T04:27:32.513Z,1008.00
2023-04-21T04:28:32.683Z,1044.00
2023-04-21T04:29:32.856Z,1080.00
2023-04-21T04:30:33.212Z,1120.00
2023-04-21T04:31:33.448Z,1160.00
2023-04-21T04:32:33.653Z,1200.00
2023-04-21T04:33:33.856Z,1236.00
2023-04-21T04:34:34.033Z,1272.00
2023-04-21T04:35:34.258Z,1312.00
2023-04-21T04:36:34.482Z,1356.00
2023-04-21T04:37:34.662Z,1396.00
2023-04-21T04:38:34.957Z,1436.00
2023-04-21T04:39:35.137Z,1476.00
2023-04-21T04:40:35.490Z,1516.00
2023-04-21T04:41:35.685Z,1560.00
2023-04-21T04:42:35.884Z,1604.00
2023-04-21T04:43:36.064Z,1640.00
2023-04-21T04:44:36.390Z,1684.00
2023-04-21T04:45:36.583Z,1728.00
2023-04-21T04:46:36.824Z,1772.00
2023-04-21T04:47:37.010Z,1812.00
2023-04-21T04:48:37.213Z,1852.00
2023-04-21T04:49:37.400Z,1900.00
2023-04-21T04:50:37.741Z,1932.00
2023-04-21T04:51:37.899Z,1980.00
2023-04-21T04:52:38.097Z,2024.00
2023-04-21T04:53:38.482Z,2068.00
2023-04-21T04:54:38.568Z,2108.00
2023-04-21T04:55:38.846Z,2148.00
2023-04-21T04:56:39.030Z,2184.00
2023-04-21T04:57:39.250Z,2232.00
2023-04-21T04:58:39.461Z,2268.00
2023-04-21T04:59:39.647Z,2312.00
2023-04-21T05:00:39.941Z,2360.00
2023-04-21T05:01:47.216Z,2400.00
2023-04-21T05:02:40.705Z,2440.00
2023-04-21T05:03:41.868Z,2480.00
2023-04-21T05:04:40.919Z,2528.00
2023-04-21T05:05:41.133Z,2568.00
2023-04-21T05:06:41.342Z,2608.00
2023-04-21T05:07:41.522Z,2652.00
2023-04-21T05:08:41.734Z,2696.00
2023-04-21T05:09:41.894Z,2740.00
2023-04-21T05:10:42.142Z,2776.00
2023-04-21T05:11:42.308Z,2816.00
2023-04-21T05:12:42.504Z,2856.00
2023-04-21T05:13:42.686Z,2904.00
2023-04-21T05:14:42.874Z,2940.00
2023-04-21T05:15:43.083Z,2976.00
2023-04-21T05:16:43.295Z,3012.00
2023-04-21T05:17:43.457Z,3036.00
2023-04-21T05:18:43.644Z,3096.00
2023-04-21T05:19:43.808Z,3132.00
2023-04-21T05:20:44.014Z,3164.00
2023-04-21T05:21:44.200Z,3212.00
2023-04-21T05:22:44.373Z,3256.00
2023-04-21T05:23:44.558Z,3292.00
2023-04-21T05:24:44.841Z,3348.00
2023-04-21T05:25:45.167Z,3332.00
2023-04-21T05:26:45.343Z,3368.00
2023-04-21T05:27:45.635Z,3416.00
2023-04-21T05:28:45.825Z,3468.00
2023-04-21T05:29:46.138Z,3496.00
2023-04-21T05:30:46.325Z,3536.00
2023-04-21T05:31:46.532Z,3592.00
2023-04-21T05:32:46.767Z,3632.00
2023-04-21T05:33:46.911Z,3700.00
2023-04-21T05:34:47.098Z,3752.00
2023-04-21T05:35:47.313Z,3788.00
2023-04-21T05:36:47.490Z,3840.00
2023-04-21T05:37:47.787Z,3876.00
2023-04-21T05:38:47.957Z,3936.00
2023-04-21T05:39:48.260Z,3980.00
2023-04-21T05:40:48.434Z,4024.00
2023-04-21T05:41:48.616Z,4092.00
2023-04-21T05:42:48.897Z,4152.00
2023-04-21T05:43:49.105Z,4288.00
2023-04-21T05:44:49.273Z,4340.00
2023-04-21T05:45:49.597Z,4456.00
2023-04-21T05:46:49.731Z,4732.00
2023-04-21T05:47:50.113Z,4752.00
2023-04-21T05:48:50.278Z,4684.00
2023-04-21T05:49:50.625Z,4908.00
2023-04-21T05:50:50.755Z,6008.00
2023-04-21T05:51:50.930Z,5372.00
2023-04-21T05:52:51.099Z,5472.00
2023-04-21T05:53:51.270Z,5224.00
2023-04-21T05:54:51.466Z,5092.00
2023-04-21T05:55:51.742Z,5792.00
2023-04-21T05:56:51.949Z,7204.00
2023-04-21T05:57:52.102Z,8560.00
2023-04-21T05:58:52.272Z,6284.00
2023-04-21T05:59:52.441Z,7672.00
2023-04-21T06:00:52.633Z,7100.00
2023-04-21T06:01:52.818Z,2904.00
2023-04-21T06:02:53.043Z,6256.00
2023-04-21T06:03:53.323Z,6136.00
2023-04-21T06:04:53.540Z,7880.00
2023-04-21T06:05:53.613Z,6096.00
2023-04-21T06:06:53.775Z,6752.00
2023-04-21T06:07:53.931Z,7436.00
2023-04-21T06:08:54.104Z,9680.00
2023-04-21T06:09:54.266Z,10980.00
2023-04-21T06:10:54.454Z,10540.00
2023-04-21T06:11:54.616Z,8204.00
2023-04-21T06:12:54.780Z,7000.00
2023-04-21T06:13:55.029Z,6632.00
2023-04-21T06:14:55.181Z,6676.00
2023-04-21T06:15:55.589Z,6896.00
2023-04-21T06:16:55.644Z,6864.00
2023-04-21T06:17:55.823Z,7124.00
2023-04-21T06:18:55.988Z,9560.00
2023-04-21T06:19:56.177Z,8480.00
2023-04-21T06:20:56.356Z,7480.00
2023-04-21T06:21:56.523Z,7324.00
2023-04-21T06:22:56.694Z,7596.00
2023-04-21T06:23:56.863Z,7756.00
2023-04-21T06:24:58.295Z,7728.00
2023-04-21T06:25:57.212Z,8620.00
2023-04-21T06:26:57.397Z,8696.00
2023-04-21T06:27:57.560Z,8576.00
2023-04-21T06:28:57.734Z,8384.00
2023-04-21T06:29:57.926Z,8624.00
2023-04-21T06:30:58.054Z,8376.00
2023-04-21T06:31:58.311Z,8664.00
2023-04-21T06:32:58.550Z,8984.00
2023-04-21T06:33:58.677Z,8424.00
2023-04-21T06:34:58.834Z,9060.00
2023-04-21T06:35:58.994Z,9292.00
2023-04-21T06:36:59.135Z,9572.00
2023-04-21T06:37:59.404Z,9684.00
2023-04-21T06:38:59.531Z,9836.00
2023-04-21T06:39:59.684Z,9812.00
2023-04-21T06:40:59.859Z,9180.00
2023-04-21T06:41:59.994Z,8752.00
2023-04-21T06:43:00.134Z,11784.00
2023-04-21T06:44:00.386Z,14596.00
2023-04-21T06:45:00.515Z,10056.00
2023-04-21T06:46:00.673Z,12120.00
2023-04-21T06:47:00.865Z,12892.00
2023-04-21T06:48:01.045Z,14740.00
2023-04-21T06:49:01.160Z,19200.00
2023-04-21T06:50:01.465Z,23008.00
2023-04-21T06:51:01.571Z,22208.00
2023-04-21T06:52:01.695Z,23712.00
2023-04-21T06:53:01.962Z,28352.00
2023-04-21T06:54:02.109Z,10816.00
2023-04-21T06:55:02.231Z,29248.00
2023-04-21T06:56:02.371Z,29824.00
2023-04-21T06:57:02.519Z,30272.00
2023-04-21T06:58:02.662Z,30848.00
2023-04-21T06:59:02.797Z,31552.00
2023-04-21T07:00:02.933Z,31456.00
2023-04-21T07:01:03.127Z,30496.00
2023-04-21T07:02:03.302Z,25216.00
2023-04-21T07:03:03.497Z,28384.00
2023-04-21T07:04:03.686Z,25376.00
2023-04-21T07:05:03.664Z,23808.00
2023-04-21T07:06:03.839Z,17664.00
2023-04-21T07:07:03.976Z,15040.00
2023-04-21T07:08:04.105Z,14440.00
2023-04-21T07:09:04.242Z,13988.00
2023-04-21T07:10:04.364Z,14364.00
2023-04-21T07:11:04.597Z,26208.00
2023-04-21T07:12:04.711Z,33728.00
2023-04-21T07:13:04.824Z,36896.00
2023-04-21T07:14:04.913Z,38336.00
2023-04-21T07:15:05.049Z,37920.00
2023-04-21T07:16:05.153Z,38400.00
2023-04-21T07:17:05.349Z,17952.00
2023-04-21T07:18:05.547Z,32768.00
2023-04-21T07:19:05.627Z,25984.00
2023-04-21T07:20:05.812Z,21696.00
2023-04-21T07:21:05.931Z,20224.00
2023-04-21T07:22:06.060Z,18176.00
2023-04-21T07:23:06.193Z,20256.00
2023-04-21T07:24:06.291Z,22304.00
2023-04-21T07:25:06.451Z,8576.00
2023-04-21T07:26:06.534Z,19264.00
2023-04-21T07:27:06.663Z,23904.00
2023-04-21T07:28:06.760Z,24864.00
2023-04-21T07:29:06.850Z,18752.00
2023-04-21T07:30:06.998Z,42752.00
2023-04-21T07:31:07.159Z,43488.00
2023-04-21T07:32:07.229Z,33056.00
2023-04-21T07:33:07.386Z,29408.00
2023-04-21T07:34:07.466Z,48192.00
2023-04-21T07:35:07.789Z,49440.00
2023-04-21T07:36:07.753Z,78112.00
2023-04-21T07:37:07.860Z,38816.00
2023-04-21T07:38:07.945Z,38112.00
2023-04-21T07:39:08.168Z,46176.00
2023-04-21T07:40:08.247Z,46976.00
2023-04-21T07:41:08.420Z,49792.00
2023-04-21T07:42:08.543Z,49344.00
2023-04-21T07:43:08.612Z,49248.00
2023-04-21T07:44:08.691Z,48032.00
2023-04-21T07:45:08.911Z,47104.00
2023-04-21T07:46:09.030Z,48832.00
2023-04-21T07:47:09.144Z,48544.00
2023-04-21T07:48:09.233Z,46688.00
2023-04-21T07:49:09.403Z,44640.00
2023-04-21T07:50:09.501Z,26816.00
2023-04-21T07:51:09.605Z,27360.00
2023-04-21T07:52:09.669Z,19104.00
2023-04-21T07:53:09.820Z,22016.00
2023-04-21T07:54:09.911Z,29120.00
2023-04-21T07:55:10.015Z,21856.00
2023-04-21T07:56:10.093Z,19040.00
2023-04-21T07:57:10.190Z,18240.00
2023-04-21T07:58:10.300Z,30112.00
2023-04-21T07:59:10.544Z,28512.00
2023-04-21T08:00:10.550Z,26432.00
2023-04-21T08:01:10.643Z,28352.00
2023-04-21T08:02:10.760Z,32320.00
2023-04-21T08:03:11.004Z,34912.00
2023-04-21T08:04:11.216Z,27136.00
2023-04-21T08:05:11.331Z,24992.00
2023-04-21T08:06:11.469Z,33888.00
2023-04-21T08:07:11.533Z,46848.00
2023-04-21T08:08:11.604Z,38528.00
2023-04-21T08:09:11.695Z,44320.00
2023-04-21T08:10:11.786Z,49856.00
2023-04-21T08:11:12.170Z,38912.00
2023-04-21T08:12:11.931Z,48096.00
2023-04-21T08:13:12.420Z,58240.00
2023-04-21T08:14:12.187Z,57120.00
2023-04-21T08:15:12.295Z,57696.00
2023-04-21T08:16:12.444Z,58144.00
2023-04-21T08:17:12.485Z,58240.00
2023-04-21T08:18:12.622Z,58880.00
2023-04-21T08:19:12.670Z,57504.00
2023-04-21T08:20:12.760Z,59616.00
2023-04-21T08:21:12.829Z,60960.00
2023-04-21T08:22:12.923Z,62848.00
2023-04-21T08:23:13.347Z,62688.00
2023-04-21T08:24:13.147Z,62784.00
2023-04-21T08:25:13.228Z,62592.00
2023-04-21T08:26:13.268Z,64352.00
2023-04-21T08:27:13.356Z,64864.00
2023-04-21T08:28:13.444Z,65216.00
2023-04-21T08:29:13.536Z,66848.00
2023-04-21T08:30:13.582Z,67712.00
2023-04-21T08:31:13.660Z,66112.00
2023-04-21T08:32:13.789Z,66752.00
2023-04-21T08:33:14.174Z,64992.00
2023-04-21T08:34:13.901Z,63072.00
2023-04-21T08:35:14.004Z,62912.00
2023-04-21T08:36:26.168Z,64320.00
2023-04-21T08:37:15.191Z,66208.00
2023-04-21T08:38:14.253Z,67008.00
2023-04-21T08:39:14.301Z,67648.00
2023-04-21T08:40:14.349Z,65760.00
2023-04-21T08:41:14.403Z,63328.00
2023-04-21T08:42:14.451Z,63040.00
2023-04-21T08:43:14.528Z,58336.00
2023-04-21T08:44:14.566Z,59904.00
2023-04-21T08:45:14.631Z,60864.00
2023-04-21T08:46:14.729Z,59904.00
2023-04-21T08:47:14.745Z,62944.00
2023-04-21T08:48:14.815Z,65312.00
2023-04-21T08:49:14.838Z,65376.00
2023-04-21T08:50:14.858Z,66400.00
2023-04-21T08:51:14.948Z,65632.00
2023-04-21T08:52:14.998Z,66368.00
2023-04-21T08:53:15.037Z,69024.00
2023-04-21T08:54:15.086Z,69632.00
2023-04-21T08:55:15.129Z,67424.00
2023-04-21T08:56:15.148Z,67328.00
2023-04-21T08:57:16.272Z,67904.00
2023-04-21T08:58:15.235Z,69120.00
2023-04-21T08:59:15.271Z,71360.00
2023-04-21T09:00:15.326Z,70784.00
2023-04-21T09:01:15.426Z,73120.00
2023-04-21T09:02:15.562Z,70144.00
2023-04-21T09:03:25.033Z,71584.00
2023-04-21T09:04:16.949Z,71648.00
2023-04-21T09:05:16.117Z,73024.00
2023-04-21T09:06:16.433Z,70656.00
2023-04-21T09:07:15.766Z,71072.00
2023-04-21T09:08:15.830Z,69728.00
2023-04-21T09:09:15.863Z,69760.00
2023-04-21T09:10:15.921Z,68864.00
2023-04-21T09:11:15.971Z,68608.00
2023-04-21T09:12:15.981Z,67776.00
2023-04-21T09:13:16.039Z,69248.00
2023-04-21T09:14:16.061Z,66432.00
2023-04-21T09:15:16.087Z,68096.00
2023-04-21T09:16:16.127Z,66656.00
2023-04-21T09:17:16.202Z,65376.00
2023-04-21T09:18:16.223Z,67200.00
2023-04-21T09:19:16.292Z,65952.00
2023-04-21T09:20:16.285Z,66016.00
2023-04-21T09:21:16.353Z,64064.00
2023-04-21T09:22:16.353Z,65216.00
2023-04-21T09:23:16.394Z,65792.00
2023-04-21T09:24:16.449Z,61408.00
2023-04-21T09:25:16.457Z,63488.00
2023-04-21T09:26:16.479Z,67168.00
2023-04-21T09:27:16.496Z,68768.00
2023-04-21T09:28:16.518Z,70880.00
2023-04-21T09:29:16.614Z,71616.00
2023-04-21T09:30:16.570Z,70400.00
2023-04-21T09:31:16.777Z,70080.00
2023-04-21T09:32:16.548Z,71328.00
2023-04-21T09:33:27.282Z,72736.00
2023-04-21T09:34:17.567Z,70464.00
2023-04-21T09:35:16.573Z,72896.00
2023-04-21T09:36:16.562Z,71328.00
2023-04-21T09:37:18.782Z,72128.00
2023-04-21T09:38:16.600Z,70656.00
2023-04-21T09:40:16.617Z,72736.00
2023-04-21T09:41:16.613Z,70976.00
2023-04-21T09:42:16.622Z,71520.00
2023-04-21T09:43:16.627Z,70592.00
2023-04-21T09:44:16.660Z,69408.00
2023-04-21T09:45:32.831Z,69856.00
2023-04-21T09:46:17.635Z,66944.00
2023-04-21T09:47:16.631Z,68256.00
2023-04-21T09:48:16.613Z,67264.00
2023-04-21T09:49:16.656Z,67712.00
2023-04-21T09:50:20.615Z,68320.00
2023-04-21T09:52:18.970Z,69888.00
2023-04-21T09:53:16.906Z,72544.00
2023-04-21T09:55:16.824Z,74272.00
2023-04-21T09:56:16.830Z,74816.00
2023-04-21T09:57:16.825Z,73632.00
2023-04-21T09:58:16.802Z,73600.00
2023-04-21T09:59:16.794Z,74240.00
2023-04-21T10:00:16.810Z,74592.00
2023-04-21T10:01:16.849Z,72896.00
2023-04-21T10:02:16.963Z,74944.00
2023-04-21T10:03:16.945Z,74464.00
2023-04-21T10:04:17.123Z,73888.00
2023-04-21T10:05:16.908Z,73664.00
2023-04-21T10:06:16.888Z,73376.00
2023-04-21T10:07:16.871Z,70592.00
2023-04-21T10:08:16.847Z,71200.00
2023-04-21T10:09:16.862Z,76256.00
2023-04-21T10:10:16.890Z,72352.00
2023-04-21T10:11:16.848Z,72416.00
2023-04-21T10:12:16.853Z,78912.00
2023-04-21T10:13:16.828Z,74752.00
2023-04-21T10:14:16.817Z,73824.00
2023-04-21T10:15:16.795Z,73344.00
2023-04-21T10:16:16.816Z,72320.00
2023-04-21T10:17:18.025Z,74048.00
2023-04-21T10:18:16.838Z,70048.00
2023-04-21T10:19:16.960Z,74560.00
2023-04-21T10:20:16.838Z,72832.00
2023-04-21T10:21:16.852Z,73536.00
2023-04-21T10:22:16.818Z,76224.00
2023-04-21T10:23:16.817Z,75904.00
2023-04-21T10:24:16.999Z,73248.00
2023-04-21T10:25:16.882Z,74720.00
2023-04-21T10:26:16.867Z,77312.00
2023-04-21T10:27:16.863Z,76992.00
2023-04-21T10:28:16.877Z,76960.00
2023-04-21T10:29:16.867Z,79168.00
2023-04-21T10:30:17.020Z,74752.00
2023-04-21T10:31:17.000Z,77024.00
2023-04-21T10:32:17.016Z,75552.00
2023-04-21T10:33:16.956Z,73920.00
2023-04-21T10:34:16.966Z,74944.00
2023-04-21T10:35:16.976Z,74432.00
2023-04-21T10:36:16.964Z,76160.00
2023-04-21T10:37:17.142Z,76064.00
2023-04-21T10:38:17.039Z,74528.00
2023-04-21T10:39:17.133Z,78016.00
2023-04-21T10:40:17.046Z,74944.00
2023-04-21T10:41:17.095Z,73536.00
2023-04-21T10:42:17.125Z,76864.00
2023-04-21T10:43:17.104Z,76416.00
2023-04-21T10:44:17.186Z,79712.00
2023-04-21T10:45:17.181Z,75104.00
2023-04-21T10:46:17.215Z,78080.00
2023-04-21T10:47:17.303Z,79008.00
2023-04-21T10:48:17.155Z,78592.00
2023-04-21T10:49:17.171Z,78304.00
2023-04-21T10:50:17.177Z,77344.00
2023-04-21T10:51:17.188Z,75744.00
2023-04-21T10:52:17.175Z,75136.00
2023-04-21T10:53:17.195Z,78240.00
2023-04-21T10:54:17.390Z,75136.00
2023-04-21T10:55:17.217Z,74528.00
2023-04-21T10:56:17.172Z,74528.00
2023-04-21T10:57:17.173Z,70144.00
2023-04-21T10:58:17.154Z,72448.00
2023-04-21T10:59:17.156Z,72896.00
2023-04-21T11:00:17.179Z,72352.00
2023-04-21T11:01:17.221Z,76928.00
2023-04-21T11:02:24.296Z,74432.00
2023-04-21T11:03:17.381Z,78240.00
2023-04-21T11:04:17.372Z,75200.00
2023-04-21T11:05:17.221Z,81152.00
2023-04-21T11:06:17.232Z,76992.00
2023-04-21T11:07:17.233Z,77536.00
2023-04-21T11:08:17.222Z,78784.00
2023-04-21T11:09:17.231Z,73760.00
2023-04-21T11:10:17.220Z,73056.00
2023-04-21T11:11:17.214Z,74720.00
2023-04-21T11:12:17.205Z,71360.00
2023-04-21T11:13:17.184Z,78048.00
2023-04-21T11:14:17.335Z,69920.00
2023-04-21T11:15:17.292Z,72480.00
2023-04-21T11:16:17.222Z,77920.00
2023-04-21T11:17:17.202Z,76704.00
2023-04-21T11:18:17.193Z,77280.00
2023-04-21T11:19:17.191Z,77568.00
2023-04-21T11:20:17.202Z,77088.00
2023-04-21T11:21:17.196Z,78432.00
2023-04-21T11:22:17.186Z,77376.00
2023-04-21T11:23:17.193Z,75456.00
2023-04-21T11:24:17.387Z,75296.00
2023-04-21T11:25:17.232Z,70816.00
2023-04-21T11:26:17.232Z,72320.00
2023-04-21T11:27:17.216Z,74016.00
2023-04-21T11:28:17.190Z,74400.00
2023-04-21T11:29:17.189Z,79712.00
2023-04-21T11:30:17.184Z,77888.00
2023-04-21T11:31:17.217Z,79072.00
2023-04-21T11:32:17.190Z,78656.00
2023-04-21T11:33:17.187Z,74304.00
2023-04-21T11:34:17.248Z,79968.00
2023-04-21T11:35:17.214Z,76128.00
2023-04-21T11:36:17.230Z,76512.00
2023-04-21T11:37:17.227Z,74912.00
2023-04-21T11:38:17.240Z,71872.00
2023-04-21T11:39:17.748Z,71488.00
2023-04-21T11:40:17.281Z,70464.00
2023-04-21T11:41:17.404Z,75488.00
2023-04-21T11:42:17.401Z,73792.00
2023-04-21T11:43:17.630Z,69920.00
2023-04-21T11:44:17.437Z,73536.00
2023-04-21T11:45:19.178Z,74688.00
2023-04-21T11:46:17.543Z,75296.00
2023-04-21T11:47:17.576Z,75360.00
2023-04-21T11:48:17.556Z,76064.00
2023-04-21T11:49:17.544Z,76000.00
2023-04-21T11:50:17.539Z,77600.00
2023-04-21T11:51:19.267Z,76928.00
2023-04-21T11:52:17.584Z,73056.00
2023-04-21T11:53:17.600Z,76640.00
2023-04-21T11:54:17.619Z,71936.00
2023-04-21T11:55:17.624Z,74944.00
2023-04-21T11:56:17.666Z,71584.00
2023-04-21T11:57:17.669Z,71808.00
2023-04-21T11:58:17.675Z,73024.00
2023-04-21T11:59:17.710Z,68480.00
2023-04-21T12:00:17.703Z,65472.00
2023-04-21T12:01:17.743Z,47840.00
2023-04-21T12:02:17.851Z,25024.00
2023-04-21T12:03:17.856Z,15112.00
2023-04-21T12:04:17.948Z,14024.00
2023-04-21T12:05:17.869Z,13692.00
2023-04-21T12:06:17.951Z,13856.00
2023-04-21T12:07:17.889Z,14592.00
2023-04-21T12:08:17.925Z,19776.00
2023-04-21T12:09:17.976Z,48864.00
2023-04-21T12:10:18.026Z,68256.00
2023-04-21T12:11:17.998Z,71744.00
2023-04-21T12:12:18.015Z,71200.00
2023-04-21T12:13:18.270Z,69120.00
2023-04-21T12:14:18.073Z,65696.00
2023-04-21T12:15:18.233Z,64640.00
2023-04-21T12:16:18.183Z,64992.00
2023-04-21T12:17:18.181Z,64448.00
2023-04-21T12:18:18.199Z,67168.00
2023-04-21T12:19:18.233Z,67872.00
2023-04-21T12:20:18.239Z,67840.00
2023-04-21T12:21:18.259Z,68064.00
2023-04-21T12:22:18.325Z,69696.00
2023-04-21T12:23:18.353Z,68064.00